Flight Track Log - Related Links

Times and Time Zones

All times are in EDT time to prevent confusion due to time zone crossing. See the UAL1259 flight status page for this flight to view local times or setup timezone preferences in your user account.

Time Position Orientation Groundspeed Altitude Reporting Facility
EDT Latitude Longitude Course Direction KTS MPH feet Rate Location/Type
08:20PM 33.9333 -118.4500 305° West 177 204 1,600  Level Southern California TRACON
08:21PM 33.9258 -118.5347 264° West 239 275 4,400 2,748 Climbing Los Angeles Center
08:22PM 33.9181 -118.6311 264° West 288 331 7,600 2,645 Climbing Los Angeles Center
08:24PM 34.0034 -118.7125 285° West  Level Estimated
08:25PM 34.1396 -119.1109 305° West  Level FlightAware Approximate
08:25PM 33.8986 -118.8503 285° West 363 418 12,600  Level Los Angeles Center
08:26PM 33.9492 -118.9556 300° West 369 425 15,600 2,640 Climbing Los Angeles Center
08:27PM 34.0178 -119.0553 310° West 387 445 18,100 2,640 Climbing Los Angeles Center
08:28PM 34.1042 -119.1800 310° West 404 465 21,100 2,516 Climbing Los Angeles Center
08:29PM 34.1775 -119.2861 310° West 411 473 23,300 2,032 Climbing Los Angeles Center
08:30PM 34.2522 -119.3956 310° West 419 482 25,300 1,742 Climbing Los Angeles Center
08:31PM 34.3286 -119.5081 309° West 430 495 26,900 1,368 Climbing Los Angeles Center
08:32PM 34.4083 -119.6236 310° West 443 510 28,400 1,796 Climbing Los Angeles Center
08:33PM 34.5211 -119.7881 310° West 453 521 31,000 1,968 Climbing Los Angeles Center
08:34PM 34.6100 -119.8825 319° Northwest 454 522 32,500 1,403 Climbing Los Angeles Center
08:35PM 34.7042 -119.9831 319° Northwest 450 518 33,900 677 Climbing Los Angeles Center
08:36PM 34.8075 -120.0964 318° Northwest 450 518 33,900  Level Los Angeles Center
08:37PM 34.9003 -120.1964 319° Northwest 450 518 33,900 49 Level Los Angeles Center
08:38PM 34.9719 -120.2758 318° Northwest 444 511 34,000 48 Climbing Los Angeles Center
08:39PM 35.0789 -120.3975 317° Northwest 442 509 34,000  Level Los Angeles Center
08:40PM 35.1881 -120.5172 318° Northwest 442 509 34,000  Level Los Angeles Center
08:42PM 35.2781 -120.6181 318° Northwest 441 507 34,000  Level Los Angeles Center
08:43PM 35.3872 -120.7400 318° Northwest 442 509 34,000  Level Los Angeles Center
08:44PM 35.4792 -120.8408 318° Northwest 442 509 34,000  Level Los Angeles Center
08:45PM 35.5689 -120.9453 317° Northwest 444 511 34,000  Level Los Angeles Center
08:46PM 35.6781 -121.0667 318° Northwest 439 505 34,000  Level Los Angeles Center
08:47PM 35.7683 -121.1708 317° Northwest 442 509 34,000  Level Los Angeles Center
08:48PM 35.8594 -121.2728 318° Northwest 443 510 34,000 -233 Level Los Angeles Center
08:49PM 35.9458 -121.3772 316° Northwest 440 506 33,500 -750 Descending Oakland Center
08:50PM 36.0575 -121.4994 319° Northwest 454 522 32,400 -1,475 Descending Oakland Center
08:51PM 36.1467 -121.6019 317° Northwest 449 517 30,500 -2,049 Descending Oakland Center
08:52PM 36.2419 -121.6919 323° Northwest 438 504 28,200 -2,195 Descending Oakland Center
08:53PM 36.3328 -121.7750 324° Northwest 413 475 26,000 -2,164 Descending Oakland Center
08:54PM 36.4256 -121.8592 324° Northwest 398 458 23,800 -2,098 Descending Oakland Center
08:55PM 36.5242 -121.9058 339° North 384 442 21,700 -1,902 Descending Oakland Center
08:56PM 36.6261 -121.9336 348° North 374 430 19,900 -2,024 Descending Oakland Center
08:56PM 36.6667 -121.9500 342° North 361 415 18,900 -2,195 Descending Northern Cal TRACON
08:57PM 36.7667 -121.9667 352° North 361 415 16,900 -1,950 Descending Northern Cal TRACON
08:58PM 36.8667 -122.0000 345° North 350 403 15,000 -1,353 Descending Northern Cal TRACON
08:59PM 36.9150 -122.0094 351° North 343 395 14,600 -874 Descending Oakland Center
09:00PM 36.9914 -122.0300 348° North 283 326 13,500 -1,279 Descending Oakland Center
09:01PM 37.0636 -122.0483 349° North 265 305 12,000 -1,610 Descending Oakland Center
09:02PM 37.1481 -122.0706 348° North 259 298 10,200 -1,366 Descending Oakland Center
09:03PM 37.2164 -122.0886 348° North 252 290 9,200 -1,180 Descending Oakland Center
09:04PM 37.2861 -122.1064 349° North 254 292 7,800 -1,366 Descending Oakland Center
09:05PM 37.3522 -122.1250 347° North 245 282 6,400 -1,366 Descending Oakland Center
09:06PM 37.4158 -122.1386 350° North 235 270 5,000 -780 Descending Oakland Center
09:07PM 37.4769 -122.1558 347° North 228 262 4,800 -194 Descending Oakland Center

Login

Don't have an account? Register now (free) for customized features, flight alerts, and more!